Point Lobos — WDG4571 — position and weather

sailwx.info

Track history (hours):
 
Tides and Currents Weather Stations Pressure Air Temp Water Temp Dewpoint Dewpoint Depression Visibility Wind Speed Wind Dir Waves Ship Positions

Point Lobos

Owner: Marine Express Inc., Walnut Creek, CA. More information available from US FCC via Universal Licensing System and Coast Guard Vessel Documentation Center.

Last reported at 2018-Jun-19 01:54 UTC. Time now 2018-Jun-24 20:32 UTC.
Position N 37°47' W 122°17'.

Length 36 m.

Type: Passenger vessel. MMSI: 367537960.

Date/timePositionNaut miles runAvg speedWind from/ knotsBaromVisibWave heightAir tempDewpointWater temp
2018-Jun-19 01:54N 37°47' W 122°17'0 0.2
2018-Jun-19 01:31N 37°48' W 122°17'2 4.1
2018-Jun-19 01:00N 37°48' W 122°20'1 2.2
2018-Jun-19 00:31N 37°48' W 122°19'1 2.0
2018-Jun-19 00:01N 37°47' W 122°17'0 0.0
2018-Jun-17 22:23N 37°47' W 122°17'2 4.1
2018-Jun-17 22:00N 37°48' W 122°19'0 0.7
2018-Jun-17 21:31N 37°48' W 122°20'2 3.8
2018-Jun-17 21:00N 37°47' W 122°17'  
2018-Jun-12 22:29N 37°47' W 122°17'0 0.0
2018-Jun-12 22:00N 37°47' W 122°17'0 0.0
2018-Jun-12 21:30N 37°47' W 122°17'0 0.0
2018-Jun-12 21:00N 37°47' W 122°17'0 0.0
2018-Jun-12 20:30N 37°47' W 122°17'0 0.0
2018-Jun-12 20:00N 37°47' W 122°17'0 0.0
2018-Jun-12 19:30N 37°47' W 122°17'0 0.0
2018-Jun-12 19:00N 37°47' W 122°17'0 0.0
2018-Jun-12 18:30N 37°47' W 122°17'0 0.0
2018-Jun-12 17:59N 37°47' W 122°17'0 0.0
2018-Jun-12 17:30N 37°47' W 122°17'0 0.0
2018-Jun-12 17:00N 37°47' W 122°17'0 0.0
2018-Jun-12 16:30N 37°47' W 122°17'0 0.0
2018-Jun-12 16:00N 37°47' W 122°17'0 0.0
2018-Jun-12 15:30N 37°47' W 122°17'0 0.0
2018-Jun-12 15:00N 37°47' W 122°17'0 0.0
2018-Jun-12 14:30N 37°47' W 122°17'0 0.0
2018-Jun-12 14:00N 37°47' W 122°17'0 0.0
2018-Jun-12 13:27N 37°47' W 122°17'0 0.0
2018-Jun-12 13:00N 37°47' W 122°17'0 0.0
2018-Jun-12 12:30N 37°47' W 122°17'0 0.0
2018-Jun-12 12:00N 37°47' W 122°17'0 0.0
2018-Jun-12 11:30N 37°47' W 122°17'0 0.0
2018-Jun-12 11:00N 37°47' W 122°17'0 0.0
2018-Jun-12 10:30N 37°47' W 122°17'0 0.0
2018-Jun-12 10:00N 37°47' W 122°17'0 0.0
2018-Jun-12 09:29N 37°47' W 122°17'0 0.0
2018-Jun-12 09:00N 37°47' W 122°17'0 0.0
2018-Jun-12 08:30N 37°47' W 122°17'0 0.0
2018-Jun-12 08:00N 37°47' W 122°17'0 0.0
2018-Jun-12 07:30N 37°47' W 122°17'0 0.0
2018-Jun-12 07:00N 37°47' W 122°17'0 0.0
2018-Jun-12 06:29N 37°47' W 122°17'0 0.0
2018-Jun-12 06:00N 37°47' W 122°17'0 0.0
2018-Jun-12 05:31N 37°47' W 122°17'0 0.0
2018-Jun-12 05:00N 37°47' W 122°17'0 0.0
2018-Jun-12 04:30N 37°47' W 122°17'0 0.0
2018-Jun-12 04:00N 37°47' W 122°17'0 0.0
2018-Jun-12 03:30N 37°47' W 122°17'0 0.0
2018-Jun-12 03:00N 37°47' W 122°17'0 0.0
2018-Jun-12 02:30N 37°47' W 122°17'0 0.0
2018-Jun-12 02:00N 37°47' W 122°17'0 0.0
2018-Jun-12 01:30N 37°47' W 122°17'0 0.0
2018-Jun-12 01:00N 37°47' W 122°17'0 0.0
2018-Jun-12 00:30N 37°47' W 122°17'0 0.0
2018-Jun-12 00:00N 37°47' W 122°17'0 0.0
2018-Jun-11 23:29N 37°47' W 122°17'0 0.0
2018-Jun-11 23:00N 37°47' W 122°17'0 0.0
2018-Jun-11 22:30N 37°47' W 122°17'0 0.0
2018-Jun-11 22:00N 37°47' W 122°17'0 0.0
2018-Jun-11 21:30N 37°47' W 122°17'0 0.0
2018-Jun-11 21:00N 37°47' W 122°17'0 0.0
2018-Jun-11 20:30N 37°47' W 122°17'0 0.0
2018-Jun-11 20:00N 37°47' W 122°17'1 2.2
2018-Jun-11 19:30N 37°48' W 122°19'5 9.3
2018-Jun-11 19:00N 37°49' W 122°24'510.0
2018-Jun-11 18:31N 37°48' W 122°31'510.8
2018-Jun-11 18:00N 37°46' W 122°37'610.1
2018-Jun-11 17:26N 37°40' W 122°38'410.0
2018-Jun-11 17:01N 37°36' W 122°39'5 9.3
2018-Jun-11 16:30N 37°31' W 122°39'4 8.8
2018-Jun-11 16:01N 37°27' W 122°39'4 7.2
2018-Jun-11 15:30N 37°23' W 122°39'4 6.9
2018-Jun-11 14:58N 37°20' W 122°39'3 6.5
2018-Jun-11 14:26N 37°16' W 122°39'52 6.1
2018-Jun-11 05:57N 36°39' W 121°54'2 5.2
2018-Jun-11 05:31N 36°36' W 121°53'0 0.0
2018-Jun-11 05:00N 36°36' W 121°53'0 0.0
2018-Jun-11 04:30N 36°36' W 121°53'0 0.0
2018-Jun-11 04:00N 36°36' W 121°53'0 0.0
2018-Jun-11 03:30N 36°36' W 121°53'0 0.0
2018-Jun-11 03:00N 36°36' W 121°53'0 0.0
2018-Jun-11 02:30N 36°36' W 121°53'0 0.0
2018-Jun-11 02:00N 36°36' W 121°53'0 0.0
2018-Jun-11 01:30N 36°36' W 121°53'0 0.0
2018-Jun-11 01:00N 36°36' W 121°53'0 0.0
2018-Jun-11 00:30N 36°36' W 121°53'0 0.0
2018-Jun-11 00:00N 36°36' W 121°53'0 0.0
2018-Jun-10 23:30N 36°36' W 121°53'0 0.0
2018-Jun-10 23:00N 36°36' W 121°53'0 0.0
2018-Jun-10 22:30N 36°36' W 121°53'0 0.0
2018-Jun-10 22:00N 36°36' W 121°53'0 0.0
2018-Jun-10 21:30N 36°36' W 121°53'0 0.0
2018-Jun-10 21:00N 36°36' W 121°53'0 0.0
2018-Jun-10 20:30N 36°36' W 121°53'0 0.0
2018-Jun-10 20:00N 36°36' W 121°53'0 0.0
2018-Jun-10 19:30N 36°36' W 121°53'0 0.0
2018-Jun-10 19:00N 36°36' W 121°53'0 0.0
2018-Jun-10 18:30N 36°36' W 121°53'0 0.0
2018-Jun-10 18:00N 36°36' W 121°53'0 0.0
2018-Jun-10 17:30N 36°36' W 121°53'0 0.0
2018-Jun-10 17:00N 36°36' W 121°53'0 0.0
2018-Jun-10 16:30N 36°36' W 121°53'0 0.0
2018-Jun-10 16:00N 36°36' W 121°53'0 0.0
2018-Jun-10 15:30N 36°36' W 121°53'0 0.0
2018-Jun-10 15:00N 36°36' W 121°53'0 0.0
2018-Jun-10 14:30N 36°36' W 121°53'0 0.0
2018-Jun-10 13:30N 36°36' W 121°53'0 0.0
2018-Jun-10 13:00N 36°36' W 121°53'0 0.0
2018-Jun-10 12:30N 36°36' W 121°53'0 0.0
2018-Jun-10 12:00N 36°36' W 121°53'0 0.0
2018-Jun-10 11:30N 36°36' W 121°53'0 0.0
2018-Jun-10 11:00N 36°36' W 121°53'0 0.0
2018-Jun-10 10:30N 36°36' W 121°53'0 0.0
2018-Jun-10 10:00N 36°36' W 121°53'0 0.0
2018-Jun-10 09:30N 36°36' W 121°53'0 0.0
2018-Jun-10 09:00N 36°36' W 121°53'0 0.0
2018-Jun-10 08:30N 36°36' W 121°53'0 0.0
2018-Jun-10 08:00N 36°36' W 121°53'0 0.0
2018-Jun-10 07:30N 36°36' W 121°53'0 0.0
2018-Jun-10 07:00N 36°36' W 121°53'0 0.0
2018-Jun-10 06:30N 36°36' W 121°53'0 0.0
2018-Jun-10 06:00N 36°36' W 121°53'0 0.0
2018-Jun-10 05:30N 36°36' W 121°53'0 0.0
2018-Jun-10 05:00N 36°36' W 121°53'0 0.0
2018-Jun-10 04:30N 36°36' W 121°53'0 0.0
2018-Jun-10 04:00N 36°36' W 121°53'0 0.0
2018-Jun-10 03:30N 36°36' W 121°53'0 0.0
2018-Jun-10 03:00N 36°36' W 121°53'0 0.0
2018-Jun-10 02:30N 36°36' W 121°53'0 0.0
2018-Jun-10 02:00N 36°36' W 121°53'0 0.0
2018-Jun-10 01:30N 36°36' W 121°53'0 0.0
2018-Jun-10 01:00N 36°36' W 121°53'0 0.0
2018-Jun-10 00:30N 36°36' W 121°53'0 0.0
2018-Jun-10 00:00N 36°36' W 121°53'1 1.1
2018-Jun-09 23:30N 36°37' W 121°53'0 0.5
2018-Jun-09 23:00N 36°37' W 121°53'0 0.8
2018-Jun-09 22:31N 36°37' W 121°54'3 2.2
2018-Jun-09 21:20N 36°40' W 121°55'0 0.0
2018-Jun-09 20:01N 36°40' W 121°55'0 0.3
2018-Jun-09 20:00N 36°40' W 121°55'0 0.2
2018-Jun-09 19:09N 36°40' W 121°55'0 0.6
2018-Jun-09 18:53N 36°40' W 121°55'0 0.3
2018-Jun-09 18:31N 36°40' W 121°54'1 1.0
2018-Jun-09 17:59N 36°39' W 121°54'1 0.4
2018-Jun-09 15:58N 36°39' W 121°54'2 2.6
2018-Jun-09 15:00N 36°36' W 121°53'0 0.0
2018-Jun-09 14:30N 36°36' W 121°53'0 0.0
2018-Jun-09 14:00N 36°36' W 121°53'0 0.0
2018-Jun-09 13:30N 36°36' W 121°53'0 0.0
2018-Jun-09 13:00N 36°36' W 121°53'0 0.0
2018-Jun-09 12:30N 36°36' W 121°53'0 0.0
2018-Jun-09 12:00N 36°36' W 121°53'0 0.0
2018-Jun-09 11:29N 36°36' W 121°53'0 0.0
2018-Jun-09 11:00N 36°36' W 121°53'0 0.0
2018-Jun-09 10:30N 36°36' W 121°53'0 0.0
2018-Jun-09 10:00N 36°36' W 121°53'0 0.0
2018-Jun-09 09:30N 36°36' W 121°53'0 0.0
2018-Jun-09 09:00N 36°36' W 121°53'0 0.0
2018-Jun-09 08:30N 36°36' W 121°53'0 0.0
2018-Jun-09 08:00N 36°36' W 121°53'0 0.0
2018-Jun-09 07:30N 36°36' W 121°53'0 0.0
2018-Jun-09 07:00N 36°36' W 121°53'0 0.0
2018-Jun-09 06:30N 36°36' W 121°53'0 0.0
2018-Jun-09 06:00N 36°36' W 121°53'0 0.0
2018-Jun-09 05:30N 36°36' W 121°53'0 0.0
2018-Jun-09 05:00N 36°36' W 121°53'0 0.0
2018-Jun-09 04:30N 36°36' W 121°53'0 0.0
2018-Jun-09 04:00N 36°36' W 121°53'0 0.0
2018-Jun-09 03:30N 36°36' W 121°53'0 0.0
2018-Jun-09 03:00N 36°36' W 121°53'0 0.0
2018-Jun-09 02:30N 36°36' W 121°53'0 0.0
2018-Jun-09 02:00N 36°36' W 121°53'  
Track history (hours):
 
Tides and Currents Weather Stations Pressure Air Temp Water Temp Dewpoint Dewpoint Depression Visibility Wind Speed Wind Dir Waves Ship Positions

Point Lobos

Owner: Marine Express Inc., Walnut Creek, CA. More information available from US FCC via Universal Licensing System and Coast Guard Vessel Documentation Center.

Last reported at 2018-Jun-19 01:54 UTC. Time now 2018-Jun-24 20:32 UTC.
Position N 37°47' W 122°17'.

Length 36 m.

Type: Passenger vessel. MMSI: 367537960.

Date/timePositionNaut miles runAvg speedWind from/ knotsBaromVisibWave heightAir tempDewpointWater temp
2018-Jun-19 01:54N 37°47' W 122°17'0 0.2
2018-Jun-19 01:31N 37°48' W 122°17'2 4.1
2018-Jun-19 01:00N 37°48' W 122°20'1 2.2
2018-Jun-19 00:31N 37°48' W 122°19'1 2.0
2018-Jun-19 00:01N 37°47' W 122°17'0 0.0
2018-Jun-17 22:23N 37°47' W 122°17'2 4.1
2018-Jun-17 22:00N 37°48' W 122°19'0 0.7
2018-Jun-17 21:31N 37°48' W 122°20'2 3.8
2018-Jun-17 21:00N 37°47' W 122°17'  
2018-Jun-12 22:29N 37°47' W 122°17'0 0.0
2018-Jun-12 22:00N 37°47' W 122°17'0 0.0
2018-Jun-12 21:30N 37°47' W 122°17'0 0.0
2018-Jun-12 21:00N 37°47' W 122°17'0 0.0
2018-Jun-12 20:30N 37°47' W 122°17'0 0.0
2018-Jun-12 20:00N 37°47' W 122°17'0 0.0
2018-Jun-12 19:30N 37°47' W 122°17'0 0.0
2018-Jun-12 19:00N 37°47' W 122°17'0 0.0
2018-Jun-12 18:30N 37°47' W 122°17'0 0.0
2018-Jun-12 17:59N 37°47' W 122°17'0 0.0
2018-Jun-12 17:30N 37°47' W 122°17'0 0.0
2018-Jun-12 17:00N 37°47' W 122°17'0 0.0
2018-Jun-12 16:30N 37°47' W 122°17'0 0.0
2018-Jun-12 16:00N 37°47' W 122°17'0 0.0
2018-Jun-12 15:30N 37°47' W 122°17'0 0.0
2018-Jun-12 15:00N 37°47' W 122°17'0 0.0
2018-Jun-12 14:30N 37°47' W 122°17'0 0.0
2018-Jun-12 14:00N 37°47' W 122°17'0 0.0
2018-Jun-12 13:27N 37°47' W 122°17'0 0.0
2018-Jun-12 13:00N 37°47' W 122°17'0 0.0
2018-Jun-12 12:30N 37°47' W 122°17'0 0.0
2018-Jun-12 12:00N 37°47' W 122°17'0 0.0
2018-Jun-12 11:30N 37°47' W 122°17'0 0.0
2018-Jun-12 11:00N 37°47' W 122°17'0 0.0
2018-Jun-12 10:30N 37°47' W 122°17'0 0.0
2018-Jun-12 10:00N 37°47' W 122°17'0 0.0
2018-Jun-12 09:29N 37°47' W 122°17'0 0.0
2018-Jun-12 09:00N 37°47' W 122°17'0 0.0
2018-Jun-12 08:30N 37°47' W 122°17'0 0.0
2018-Jun-12 08:00N 37°47' W 122°17'0 0.0
2018-Jun-12 07:30N 37°47' W 122°17'0 0.0
2018-Jun-12 07:00N 37°47' W 122°17'0 0.0
2018-Jun-12 06:29N 37°47' W 122°17'0 0.0
2018-Jun-12 06:00N 37°47' W 122°17'0 0.0
2018-Jun-12 05:31N 37°47' W 122°17'0 0.0
2018-Jun-12 05:00N 37°47' W 122°17'0 0.0
2018-Jun-12 04:30N 37°47' W 122°17'0 0.0
2018-Jun-12 04:00N 37°47' W 122°17'0 0.0
2018-Jun-12 03:30N 37°47' W 122°17'0 0.0
2018-Jun-12 03:00N 37°47' W 122°17'0 0.0
2018-Jun-12 02:30N 37°47' W 122°17'0 0.0
2018-Jun-12 02:00N 37°47' W 122°17'0 0.0
2018-Jun-12 01:30N 37°47' W 122°17'0 0.0
2018-Jun-12 01:00N 37°47' W 122°17'0 0.0
2018-Jun-12 00:30N 37°47' W 122°17'0 0.0
2018-Jun-12 00:00N 37°47' W 122°17'0 0.0
2018-Jun-11 23:29N 37°47' W 122°17'0 0.0
2018-Jun-11 23:00N 37°47' W 122°17'0 0.0
2018-Jun-11 22:30N 37°47' W 122°17'0 0.0
2018-Jun-11 22:00N 37°47' W 122°17'0 0.0
2018-Jun-11 21:30N 37°47' W 122°17'0 0.0
2018-Jun-11 21:00N 37°47' W 122°17'0 0.0
2018-Jun-11 20:30N 37°47' W 122°17'0 0.0
2018-Jun-11 20:00N 37°47' W 122°17'1 2.2
2018-Jun-11 19:30N 37°48' W 122°19'5 9.3
2018-Jun-11 19:00N 37°49' W 122°24'510.0
2018-Jun-11 18:31N 37°48' W 122°31'510.8
2018-Jun-11 18:00N 37°46' W 122°37'610.1
2018-Jun-11 17:26N 37°40' W 122°38'410.0
2018-Jun-11 17:01N 37°36' W 122°39'5 9.3
2018-Jun-11 16:30N 37°31' W 122°39'4 8.8
2018-Jun-11 16:01N 37°27' W 122°39'4 7.2
2018-Jun-11 15:30N 37°23' W 122°39'4 6.9
2018-Jun-11 14:58N 37°20' W 122°39'3 6.5
2018-Jun-11 14:26N 37°16' W 122°39'52 6.1
2018-Jun-11 05:57N 36°39' W 121°54'2 5.2
2018-Jun-11 05:31N 36°36' W 121°53'0 0.0
2018-Jun-11 05:00N 36°36' W 121°53'0 0.0
2018-Jun-11 04:30N 36°36' W 121°53'0 0.0
2018-Jun-11 04:00N 36°36' W 121°53'0 0.0
2018-Jun-11 03:30N 36°36' W 121°53'0 0.0
2018-Jun-11 03:00N 36°36' W 121°53'0 0.0
2018-Jun-11 02:30N 36°36' W 121°53'0 0.0
2018-Jun-11 02:00N 36°36' W 121°53'0 0.0
2018-Jun-11 01:30N 36°36' W 121°53'0 0.0
2018-Jun-11 01:00N 36°36' W 121°53'0 0.0
2018-Jun-11 00:30N 36°36' W 121°53'0 0.0
2018-Jun-11 00:00N 36°36' W 121°53'0 0.0
2018-Jun-10 23:30N 36°36' W 121°53'0 0.0
2018-Jun-10 23:00N 36°36' W 121°53'0 0.0
2018-Jun-10 22:30N 36°36' W 121°53'0 0.0
2018-Jun-10 22:00N 36°36' W 121°53'0 0.0
2018-Jun-10 21:30N 36°36' W 121°53'0 0.0
2018-Jun-10 21:00N 36°36' W 121°53'0 0.0
2018-Jun-10 20:30N 36°36' W 121°53'0 0.0
2018-Jun-10 20:00N 36°36' W 121°53'0 0.0
2018-Jun-10 19:30N 36°36' W 121°53'0 0.0
2018-Jun-10 19:00N 36°36' W 121°53'0 0.0
2018-Jun-10 18:30N 36°36' W 121°53'0 0.0
2018-Jun-10 18:00N 36°36' W 121°53'0 0.0
2018-Jun-10 17:30N 36°36' W 121°53'0 0.0
2018-Jun-10 17:00N 36°36' W 121°53'0 0.0
2018-Jun-10 16:30N 36°36' W 121°53'0 0.0
2018-Jun-10 16:00N 36°36' W 121°53'0 0.0
2018-Jun-10 15:30N 36°36' W 121°53'0 0.0
2018-Jun-10 15:00N 36°36' W 121°53'0 0.0
2018-Jun-10 14:30N 36°36' W 121°53'0 0.0
2018-Jun-10 13:30N 36°36' W 121°53'0 0.0
2018-Jun-10 13:00N 36°36' W 121°53'0 0.0
2018-Jun-10 12:30N 36°36' W 121°53'0 0.0
2018-Jun-10 12:00N 36°36' W 121°53'0 0.0
2018-Jun-10 11:30N 36°36' W 121°53'0 0.0
2018-Jun-10 11:00N 36°36' W 121°53'0 0.0
2018-Jun-10 10:30N 36°36' W 121°53'0 0.0
2018-Jun-10 10:00N 36°36' W 121°53'0 0.0
2018-Jun-10 09:30N 36°36' W 121°53'0 0.0
2018-Jun-10 09:00N 36°36' W 121°53'0 0.0
2018-Jun-10 08:30N 36°36' W 121°53'0 0.0
2018-Jun-10 08:00N 36°36' W 121°53'0 0.0
2018-Jun-10 07:30N 36°36' W 121°53'0 0.0
2018-Jun-10 07:00N 36°36' W 121°53'0 0.0
2018-Jun-10 06:30N 36°36' W 121°53'0 0.0
2018-Jun-10 06:00N 36°36' W 121°53'0 0.0
2018-Jun-10 05:30N 36°36' W 121°53'0 0.0
2018-Jun-10 05:00N 36°36' W 121°53'0 0.0
2018-Jun-10 04:30N 36°36' W 121°53'0 0.0
2018-Jun-10 04:00N 36°36' W 121°53'0 0.0
2018-Jun-10 03:30N 36°36' W 121°53'0 0.0
2018-Jun-10 03:00N 36°36' W 121°53'0 0.0
2018-Jun-10 02:30N 36°36' W 121°53'0 0.0
2018-Jun-10 02:00N 36°36' W 121°53'0 0.0
2018-Jun-10 01:30N 36°36' W 121°53'0 0.0
2018-Jun-10 01:00N 36°36' W 121°53'0 0.0
2018-Jun-10 00:30N 36°36' W 121°53'0 0.0
2018-Jun-10 00:00N 36°36' W 121°53'1 1.1
2018-Jun-09 23:30N 36°37' W 121°53'0 0.5
2018-Jun-09 23:00N 36°37' W 121°53'0 0.8
2018-Jun-09 22:31N 36°37' W 121°54'3 2.2
2018-Jun-09 21:20N 36°40' W 121°55'0 0.0
2018-Jun-09 20:01N 36°40' W 121°55'0 0.3
2018-Jun-09 20:00N 36°40' W 121°55'0 0.2
2018-Jun-09 19:09N 36°40' W 121°55'0 0.6
2018-Jun-09 18:53N 36°40' W 121°55'0 0.3
2018-Jun-09 18:31N 36°40' W 121°54'1 1.0
2018-Jun-09 17:59N 36°39' W 121°54'1 0.4
2018-Jun-09 15:58N 36°39' W 121°54'2 2.6
2018-Jun-09 15:00N 36°36' W 121°53'0 0.0
2018-Jun-09 14:30N 36°36' W 121°53'0 0.0
2018-Jun-09 14:00N 36°36' W 121°53'0 0.0
2018-Jun-09 13:30N 36°36' W 121°53'0 0.0
2018-Jun-09 13:00N 36°36' W 121°53'0 0.0
2018-Jun-09 12:30N 36°36' W 121°53'0 0.0
2018-Jun-09 12:00N 36°36' W 121°53'0 0.0
2018-Jun-09 11:29N 36°36' W 121°53'0 0.0
2018-Jun-09 11:00N 36°36' W 121°53'0 0.0
2018-Jun-09 10:30N 36°36' W 121°53'0 0.0
2018-Jun-09 10:00N 36°36' W 121°53'0 0.0
2018-Jun-09 09:30N 36°36' W 121°53'0 0.0
2018-Jun-09 09:00N 36°36' W 121°53'0 0.0
2018-Jun-09 08:30N 36°36' W 121°53'0 0.0
2018-Jun-09 08:00N 36°36' W 121°53'0 0.0
2018-Jun-09 07:30N 36°36' W 121°53'0 0.0
2018-Jun-09 07:00N 36°36' W 121°53'0 0.0
2018-Jun-09 06:30N 36°36' W 121°53'0 0.0
2018-Jun-09 06:00N 36°36' W 121°53'0 0.0
2018-Jun-09 05:30N 36°36' W 121°53'0 0.0
2018-Jun-09 05:00N 36°36' W 121°53'0 0.0
2018-Jun-09 04:30N 36°36' W 121°53'0 0.0
2018-Jun-09 04:00N 36°36' W 121°53'0 0.0
2018-Jun-09 03:30N 36°36' W 121°53'0 0.0
2018-Jun-09 03:00N 36°36' W 121°53'0 0.0
2018-Jun-09 02:30N 36°36' W 121°53'0 0.0
2018-Jun-09 02:00N 36°36' W 121°53'  

Dump ship's entire track history